SLOA4: Illinois River nr Siloam Springs AR

                                SHEF ID:       SLOA4     Illinois River South of Siloam S
STATION TYPE:

STAGE RIV-FLOW BAT-LOAD
ft cfs volt
Ccp-Rev Ccp-Rev Ccp-Rev
(America/Chicago)
04/25 00:00 8.64 4379 12.06
04/25 01:00 8.23 3969 12.00
04/25 02:00 7.88 3633 11.96
04/25 03:00 7.58 3356 11.94
04/25 04:00 7.33 3136 11.91
04/25 05:00 7.11 2947 11.91
04/25 06:00 6.92 2788 11.87
04/25 07:00 6.74 2641 11.85
04/25 08:00 6.60 2529 11.99
04/25 09:00 6.46 2420 12.77
04/25 10:00 6.34 2327 13.12
04/25 11:00 6.23 2244 12.95
04/25 12:00 6.12 2162 12.86
04/25 13:00 6.02 2088 12.86
04/25 14:00 5.95 2037 12.86
04/25 15:00 5.86 1973 12.82
04/25 16:00 5.79 1923 12.76
04/25 17:00 5.71 1868 12.70
04/25 18:00 5.66 1833 12.40
04/25 19:00 5.60 1792 12.45
04/25 20:00 5.57 1771 12.27
04/25 21:00 5.51 1731 12.18
04/25 22:00 5.61 1799 12.14
04/25 23:00 ---- ---- 12.11
Data processed at Sun 26Apr2026 04:18 GMT

NOTICE: If you are parsing this page

Please convert to using our Data API. Starting early 2026 we will be migrating to: https://water.usace.army.mil with modern pages rendered in JavaScript. When this migration completes you will no longer be able to scrape this page! CWMSDataAPI (CDA)

Timeseries IDs (TSIDs)

TSIDs used from left to right in the data table
SILO.Stage.Inst.1Hour.0.Ccp-Rev
SILO.Flow.Inst.1Hour.0.Ccp-Rev
SILO.Volt-Battery Load.Inst.1Hour.0.Ccp-Rev

                            

All information presented herein is the property of the government of the United States of America and may be revised or deleted at any time without prior notice. Dissemination of this information without the expressed written consent of the Public Affairs Office, Tulsa District U.S. Army Corps of Engineers is strictly prohibited. These data are gathered electronically and, as presented, have NOT undergone any form of quality control. These data are NOT guaranteed to be valid or correct.